createdAt,value
2022-11-04T00:02:14.013Z,12.20
2022-11-04T00:04:42.539Z,12.20
2022-11-04T00:07:24.840Z,12.20
2022-11-04T00:09:53.327Z,12.10
2022-11-04T00:12:26.504Z,12.10
2022-11-04T00:15:16.305Z,12.10
2022-11-04T00:17:43.756Z,12.10
2022-11-04T00:20:30.395Z,12.10
2022-11-04T00:23:16.106Z,12.10
2022-11-04T00:26:01.862Z,12.10
2022-11-04T00:28:45.179Z,12.00
2022-11-04T00:31:47.116Z,12.00
2022-11-04T00:34:15.554Z,12.00
2022-11-04T00:36:43.985Z,12.00
2022-11-04T00:39:12.440Z,12.00
2022-11-04T00:41:40.898Z,12.00
2022-11-04T00:44:09.524Z,12.00
2022-11-04T00:46:39.359Z,11.90
2022-11-04T00:49:07.939Z,12.00
2022-11-04T00:51:36.477Z,12.00
2022-11-04T00:54:05.096Z,11.90
2022-11-04T00:56:34.011Z,12.00
2022-11-04T00:59:02.942Z,12.00
2022-11-04T01:01:31.716Z,11.90
2022-11-04T01:04:01.646Z,11.90
2022-11-04T01:06:30.128Z,11.90
2022-11-04T01:08:59.314Z,11.90
2022-11-04T01:11:29.626Z,11.80
2022-11-04T01:13:58.867Z,11.80
2022-11-04T01:16:29.274Z,11.80
2022-11-04T01:18:57.972Z,11.80
2022-11-04T01:21:27.937Z,11.70
2022-11-04T01:23:56.796Z,11.70
2022-11-04T01:26:26.662Z,11.70
2022-11-04T01:28:56.416Z,11.70
2022-11-04T01:31:26.463Z,11.70
2022-11-04T01:33:56.296Z,11.70
2022-11-04T01:36:25.567Z,11.70
2022-11-04T01:38:57.004Z,11.80
2022-11-04T01:41:27.880Z,11.70
2022-11-04T01:43:57.633Z,11.70
2022-11-04T01:46:42.216Z,11.80
2022-11-04T01:49:26.507Z,11.80
2022-11-04T01:52:00.667Z,11.80
2022-11-04T01:54:31.517Z,11.80
2022-11-04T01:57:03.990Z,11.80
2022-11-04T01:59:40.277Z,11.80
2022-11-04T02:02:09.129Z,11.80
2022-11-04T02:04:39.470Z,11.80
2022-11-04T02:07:10.524Z,11.90
2022-11-04T02:09:41.526Z,11.90
2022-11-04T02:12:27.663Z,11.90
2022-11-04T02:14:59.091Z,11.90
2022-11-04T02:17:38.020Z,11.90
2022-11-04T02:20:26.853Z,11.90
2022-11-04T02:23:27.496Z,11.90
2022-11-04T02:26:35.111Z,12.00
2022-11-04T02:29:48.407Z,11.90
2022-11-04T02:32:25.247Z,12.00
2022-11-04T02:35:01.096Z,12.00
2022-11-04T02:37:37.202Z,12.00
2022-11-04T02:40:21.024Z,11.90
2022-11-04T02:42:55.964Z,12.00
2022-11-04T02:45:28.740Z,12.00
2022-11-04T02:48:06.909Z,12.00
2022-11-04T02:50:43.170Z,12.00
2022-11-04T02:53:16.259Z,12.00
2022-11-04T02:55:47.917Z,12.10
2022-11-04T02:58:20.982Z,12.10
2022-11-04T03:00:52.595Z,12.10
2022-11-04T03:03:27.125Z,12.20
2022-11-04T03:05:58.981Z,12.20
2022-11-04T03:08:31.373Z,12.20
2022-11-04T03:11:04.714Z,12.30
2022-11-04T03:13:37.963Z,12.30
2022-11-04T03:16:12.908Z,12.30
2022-11-04T03:18:50.666Z,12.20
2022-11-04T03:21:21.585Z,12.20
2022-11-04T03:23:50.056Z,12.20
2022-11-04T03:26:25.194Z,12.30
2022-11-04T03:29:00.450Z,12.20
2022-11-04T03:31:39.089Z,12.30
2022-11-04T03:34:09.004Z,12.30
2022-11-04T03:36:37.622Z,12.30
2022-11-04T03:39:06.104Z,12.30
2022-11-04T03:41:39.187Z,12.40
2022-11-04T03:44:07.753Z,12.40
2022-11-04T03:46:36.697Z,12.40
2022-11-04T03:49:06.604Z,12.40
2022-11-04T03:51:36.369Z,12.40
2022-11-04T03:54:05.803Z,12.40
2022-11-04T03:57:04.433Z,12.40
2022-11-04T03:59:51.809Z,12.50
2022-11-04T04:02:24.388Z,12.50
2022-11-04T04:04:59.562Z,12.50
2022-11-04T04:07:34.461Z,12.60
2022-11-04T04:10:29.558Z,12.60
2022-11-04T04:13:01.898Z,12.60
2022-11-04T04:15:39.463Z,12.60
2022-11-04T04:18:12.803Z,12.60
2022-11-04T04:20:43.481Z,12.60
2022-11-04T04:23:35.164Z,12.50
2022-11-04T04:26:24.164Z,12.50
2022-11-04T04:28:55.150Z,12.50
2022-11-04T04:31:42.878Z,12.50
2022-11-04T04:34:11.572Z,12.50
2022-11-04T04:36:45.151Z,12.50
2022-11-04T04:39:35.799Z,12.40
2022-11-04T04:42:22.750Z,12.40
2022-11-04T04:45:06.359Z,12.40
2022-11-04T04:47:43.458Z,12.40
2022-11-04T04:50:14.479Z,12.40
2022-11-04T04:52:45.613Z,12.30
2022-11-04T04:55:15.900Z,12.30
2022-11-04T04:57:44.646Z,12.30
2022-11-04T05:00:15.577Z,12.20
2022-11-04T05:02:44.502Z,12.20
2022-11-04T05:07:44.209Z,12.20
2022-11-04T05:10:16.125Z,12.20
2022-11-04T05:13:02.054Z,12.20
2022-11-04T05:15:31.860Z,12.20
2022-11-04T05:18:01.781Z,12.20
2022-11-04T05:20:34.121Z,12.20
2022-11-04T05:23:02.747Z,12.20
2022-11-04T05:25:32.541Z,12.10
2022-11-04T05:28:02.199Z,12.10
2022-11-04T05:30:31.048Z,12.10
2022-11-04T05:33:03.438Z,12.10
2022-11-04T05:35:34.093Z,12.10
2022-11-04T05:38:02.621Z,12.10
2022-11-04T05:40:32.488Z,12.10
2022-11-04T05:43:01.256Z,12.00
2022-11-04T05:45:30.195Z,12.00
2022-11-04T05:48:00.007Z,12.00
2022-11-04T05:50:28.776Z,12.10
2022-11-04T05:52:58.941Z,12.10
2022-11-04T05:55:27.582Z,12.10
2022-11-04T05:57:59.251Z,12.20
2022-11-04T06:00:28.594Z,12.20
2022-11-04T06:02:58.362Z,12.30
2022-11-04T06:05:27.406Z,12.30
2022-11-04T06:07:56.492Z,12.30
2022-11-04T06:10:25.388Z,12.30
2022-11-04T06:12:53.926Z,12.30
2022-11-04T06:15:23.762Z,12.30
2022-11-04T06:17:52.192Z,12.30
2022-11-04T06:20:20.664Z,12.30
2022-11-04T06:22:49.130Z,12.30
2022-11-04T06:25:17.752Z,12.30
2022-11-04T06:27:46.234Z,12.30
2022-11-04T06:30:14.891Z,12.30
2022-11-04T06:32:44.847Z,12.30
2022-11-04T06:35:13.430Z,12.30
2022-11-04T06:37:41.947Z,12.30
2022-11-04T06:40:11.215Z,12.30
2022-11-04T06:42:42.917Z,12.30
2022-11-04T06:45:12.480Z,12.30
2022-11-04T06:47:40.964Z,12.40
2022-11-04T06:50:12.137Z,12.40
2022-11-04T06:52:42.523Z,12.40
2022-11-04T06:55:11.819Z,12.50
2022-11-04T06:57:40.674Z,12.60
2022-11-04T07:00:10.330Z,12.60
2022-11-04T07:02:39.167Z,12.70
2022-11-04T07:05:08.407Z,12.80
2022-11-04T07:07:38.353Z,12.90
2022-11-04T07:10:07.635Z,13.00
2022-11-04T07:12:36.123Z,13.10
2022-11-04T07:15:04.904Z,13.20
2022-11-04T07:17:33.433Z,13.30
2022-11-04T07:20:01.897Z,13.30
2022-11-04T07:22:31.798Z,13.30
2022-11-04T07:25:01.710Z,13.40
2022-11-04T07:27:31.608Z,13.40
2022-11-04T07:30:00.194Z,13.40
2022-11-04T07:32:28.791Z,13.40
2022-11-04T07:34:57.277Z,13.40
2022-11-04T07:37:25.727Z,13.40
2022-11-04T07:39:54.214Z,13.40
2022-11-04T07:42:24.115Z,13.30
2022-11-04T07:44:56.413Z,13.40
2022-11-04T07:47:24.875Z,13.40
2022-11-04T07:49:53.329Z,13.40
2022-11-04T07:52:22.078Z,13.40
2022-11-04T07:54:50.542Z,13.40
2022-11-04T07:57:19.019Z,13.30
2022-11-04T07:59:49.139Z,13.40
2022-11-04T08:02:22.232Z,13.30
2022-11-04T08:04:53.715Z,13.40
2022-11-04T08:07:22.401Z,13.40
2022-11-04T08:09:50.857Z,13.50
2022-11-04T08:12:20.931Z,13.60
2022-11-04T08:14:50.779Z,13.80
2022-11-04T08:17:19.261Z,13.80
2022-11-04T08:19:47.701Z,13.90
2022-11-04T08:22:16.124Z,13.90
2022-11-04T08:24:47.272Z,13.90
2022-11-04T08:27:16.038Z,13.90
2022-11-04T08:29:44.481Z,14.00
2022-11-04T08:32:14.276Z,14.00
2022-11-04T08:34:42.680Z,14.00
2022-11-04T08:37:11.204Z,14.00
2022-11-04T08:39:39.624Z,14.00
2022-11-04T08:42:08.106Z,14.00
2022-11-04T08:44:37.102Z,14.00
2022-11-04T08:47:05.725Z,13.90
2022-11-04T08:49:39.527Z,13.90
2022-11-04T08:52:08.108Z,13.90
2022-11-04T08:54:36.755Z,13.90
2022-11-04T08:57:05.785Z,13.90
2022-11-04T08:59:34.303Z,14.00
2022-11-04T09:02:03.269Z,14.00
2022-11-04T09:04:31.849Z,14.00
2022-11-04T09:07:08.198Z,14.00
2022-11-04T09:09:37.004Z,14.00
2022-11-04T09:12:05.725Z,14.00
2022-11-04T09:14:34.161Z,13.90
2022-11-04T09:17:02.741Z,13.90
2022-11-04T09:19:31.184Z,14.00
2022-11-04T09:22:01.076Z,14.00
2022-11-04T09:24:30.016Z,14.10
2022-11-04T09:26:58.566Z,14.10
2022-11-04T09:29:27.059Z,14.20
2022-11-04T09:31:56.458Z,14.20
2022-11-04T09:34:24.865Z,14.30
2022-11-04T09:36:56.469Z,14.30
2022-11-04T09:39:27.065Z,14.30
2022-11-04T09:42:04.231Z,14.30
2022-11-04T09:45:06.894Z,14.30
2022-11-04T09:47:33.909Z,14.20
2022-11-04T09:50:03.674Z,14.30
2022-11-04T09:52:34.720Z,14.30
2022-11-04T09:55:12.615Z,14.30
2022-11-04T09:57:41.250Z,14.40
2022-11-04T10:00:16.139Z,14.50
2022-11-04T10:02:56.380Z,14.60
2022-11-04T10:05:41.056Z,14.70
2022-11-04T10:08:37.570Z,14.80
2022-11-04T10:11:15.558Z,14.90
2022-11-04T10:13:59.125Z,15.00
2022-11-04T10:16:42.734Z,15.00
2022-11-04T10:19:35.867Z,14.90
2022-11-04T10:22:08.661Z,14.70
2022-11-04T10:24:48.054Z,14.70
2022-11-04T10:27:22.631Z,14.70
2022-11-04T10:29:55.364Z,14.60
2022-11-04T10:32:29.455Z,14.50
2022-11-04T10:35:02.118Z,14.50
2022-11-04T10:37:32.485Z,14.50
2022-11-04T10:40:07.613Z,14.50
2022-11-04T10:42:37.732Z,14.50
2022-11-04T10:45:06.733Z,14.50
2022-11-04T10:47:45.260Z,14.50
2022-11-04T10:50:31.301Z,14.40
2022-11-04T10:53:17.492Z,14.40
2022-11-04T10:55:57.528Z,14.40
2022-11-04T10:58:30.637Z,14.50
2022-11-04T11:01:00.188Z,14.60
2022-11-04T11:03:33.579Z,14.70
2022-11-04T11:06:14.824Z,14.80
2022-11-04T11:08:44.336Z,14.80
2022-11-04T11:11:15.283Z,14.70
2022-11-04T11:13:47.304Z,14.90
2022-11-04T11:16:20.347Z,15.00
2022-11-04T11:19:14.083Z,15.10
2022-11-04T11:21:45.617Z,15.10
2022-11-04T11:24:17.376Z,15.20
2022-11-04T11:26:49.000Z,15.20
2022-11-04T11:29:24.467Z,15.20
2022-11-04T11:31:54.242Z,15.20
2022-11-04T11:34:27.642Z,15.20
2022-11-04T11:36:57.602Z,15.30
2022-11-04T11:39:29.502Z,15.30
2022-11-04T11:42:02.068Z,15.20
2022-11-04T11:44:38.606Z,15.30
2022-11-04T11:47:08.726Z,15.20
2022-11-04T11:49:38.557Z,15.20
2022-11-04T11:52:33.270Z,15.00
2022-11-04T11:55:07.593Z,14.90
2022-11-04T11:57:45.206Z,14.90
2022-11-04T12:03:17.657Z,14.80
2022-11-04T12:09:23.320Z,14.70
2022-11-04T12:12:32.241Z,14.70
2022-11-04T12:15:14.033Z,14.60
2022-11-04T12:17:54.625Z,14.60
2022-11-04T12:20:36.418Z,14.60
2022-11-04T12:23:13.740Z,14.60
2022-11-04T12:25:49.072Z,14.60
2022-11-04T12:28:26.822Z,14.60
2022-11-04T12:31:08.574Z,14.60
2022-11-04T12:33:44.796Z,14.50
2022-11-04T12:36:37.435Z,14.60
2022-11-04T12:39:24.439Z,14.50
2022-11-04T12:42:22.271Z,14.50
2022-11-04T12:44:59.413Z,14.50
2022-11-04T12:47:35.429Z,14.40
2022-11-04T12:50:33.413Z,14.40
2022-11-04T12:53:39.687Z,14.30
2022-11-04T12:56:11.065Z,14.30
2022-11-04T12:58:56.532Z,14.30
2022-11-04T13:01:31.662Z,14.30
2022-11-04T13:04:05.876Z,14.20
2022-11-04T13:06:40.979Z,14.20
2022-11-04T13:09:14.975Z,14.10
2022-11-04T13:11:51.180Z,14.00
2022-11-04T13:14:29.479Z,14.00
2022-11-04T13:17:02.181Z,14.10
2022-11-04T13:19:35.797Z,14.00
2022-11-04T13:22:09.879Z,14.10
2022-11-04T13:24:42.432Z,14.00
2022-11-04T13:27:20.155Z,14.00
2022-11-04T13:29:51.958Z,14.00
2022-11-04T13:32:29.103Z,14.00
2022-11-04T13:35:06.812Z,14.00
2022-11-04T13:37:40.803Z,14.00
2022-11-04T13:40:16.547Z,14.00
2022-11-04T13:43:17.356Z,14.00
2022-11-04T13:45:53.067Z,13.90
2022-11-04T13:48:24.574Z,13.90
2022-11-04T13:51:00.488Z,13.80
2022-11-04T13:53:47.008Z,13.80
2022-11-04T13:56:34.309Z,13.80
2022-11-04T13:59:08.748Z,13.70
2022-11-04T14:01:37.372Z,13.70
2022-11-04T14:04:29.517Z,13.60
2022-11-04T14:07:00.792Z,13.50
2022-11-04T14:09:55.719Z,13.50
2022-11-04T14:12:34.314Z,13.50
2022-11-04T14:15:16.371Z,13.40
2022-11-04T14:18:09.092Z,13.40
2022-11-04T14:21:05.677Z,13.40
2022-11-04T14:23:34.827Z,13.40
2022-11-04T14:26:06.625Z,13.30
2022-11-04T14:28:36.098Z,13.30
2022-11-04T14:31:06.267Z,13.30
2022-11-04T14:33:54.030Z,13.20
2022-11-04T14:36:37.893Z,13.20
2022-11-04T14:39:22.193Z,13.10
2022-11-04T14:41:58.193Z,13.10
2022-11-04T14:44:32.507Z,13.10
2022-11-04T14:47:07.442Z,13.00
2022-11-04T14:49:44.885Z,13.00
2022-11-04T14:52:25.473Z,13.00
2022-11-04T14:54:58.612Z,12.90
2022-11-04T14:57:31.499Z,12.90
2022-11-04T14:59:59.948Z,12.80
2022-11-04T15:02:34.010Z,12.80
2022-11-04T15:05:03.669Z,12.70
2022-11-04T15:07:37.516Z,12.70
2022-11-04T15:10:20.796Z,12.70
2022-11-04T15:12:55.167Z,12.70
2022-11-04T15:15:36.300Z,12.70
2022-11-04T15:18:09.055Z,12.70
2022-11-04T15:20:41.599Z,12.60
2022-11-04T15:23:15.690Z,12.60
2022-11-04T15:25:48.727Z,12.60
2022-11-04T15:28:23.235Z,12.60
2022-11-04T15:31:03.969Z,12.60
2022-11-04T15:33:37.228Z,12.60
2022-11-04T15:36:06.844Z,12.50
2022-11-04T15:38:35.655Z,12.50
2022-11-04T15:41:18.838Z,12.50
2022-11-04T15:43:48.858Z,12.50
2022-11-04T15:46:21.373Z,12.50
2022-11-04T15:49:05.222Z,12.50
2022-11-04T15:51:39.809Z,12.50
2022-11-04T15:54:20.334Z,12.40
2022-11-04T15:56:55.190Z,12.50
2022-11-04T15:59:28.791Z,12.50
2022-11-04T16:01:57.550Z,12.50
2022-11-04T16:04:28.041Z,12.40
2022-11-04T16:07:23.623Z,12.40
2022-11-04T16:09:54.959Z,12.40
2022-11-04T16:12:29.091Z,12.40
2022-11-04T16:14:59.934Z,12.30
2022-11-04T16:17:29.937Z,12.30
2022-11-04T16:20:01.135Z,12.30
2022-11-04T16:22:34.007Z,12.30
2022-11-04T16:25:04.547Z,12.20
2022-11-04T16:27:35.989Z,12.20
2022-11-04T16:30:17.462Z,12.20
2022-11-04T16:32:47.995Z,12.20
2022-11-04T16:35:19.300Z,12.20
2022-11-04T16:37:47.873Z,12.10
2022-11-04T16:40:16.766Z,12.20
2022-11-04T16:42:45.991Z,12.10
2022-11-04T16:45:26.050Z,12.20
2022-11-04T16:47:55.398Z,12.20
2022-11-04T16:50:24.732Z,12.10
2022-11-04T16:52:53.994Z,12.10
2022-11-04T16:55:24.126Z,12.10
2022-11-04T16:57:59.493Z,12.10
2022-11-04T17:00:32.994Z,12.00
2022-11-04T17:03:04.625Z,12.00
2022-11-04T17:05:33.112Z,12.00
2022-11-04T17:08:05.067Z,12.00
2022-11-04T17:10:36.379Z,12.00
2022-11-04T17:13:04.918Z,11.90
2022-11-04T17:15:35.019Z,11.90
2022-11-04T17:18:03.920Z,11.90
2022-11-04T17:20:32.979Z,11.80
2022-11-04T17:23:02.285Z,11.80
2022-11-04T17:25:31.436Z,11.80
2022-11-04T17:27:59.917Z,11.80
2022-11-04T17:30:28.382Z,11.70
2022-11-04T17:32:58.402Z,11.60
2022-11-04T17:35:27.606Z,11.60
2022-11-04T17:37:56.394Z,11.50
2022-11-04T17:40:25.137Z,11.40
2022-11-04T17:43:12.570Z,11.40
2022-11-04T17:45:42.413Z,11.30
2022-11-04T17:48:14.349Z,11.30
2022-11-04T17:50:43.021Z,11.30
2022-11-04T17:53:11.993Z,11.20
2022-11-04T17:55:41.628Z,11.20
2022-11-04T17:58:10.254Z,11.20
2022-11-04T18:00:39.013Z,11.10
2022-11-04T18:03:08.973Z,11.10
2022-11-04T18:05:39.229Z,11.10
2022-11-04T18:08:08.106Z,11.10
2022-11-04T18:10:36.619Z,11.10
2022-11-04T18:13:05.078Z,11.00
2022-11-04T18:15:34.598Z,11.10
2022-11-04T18:18:03.493Z,11.00
2022-11-04T18:20:32.006Z,11.00
2022-11-04T18:23:01.994Z,11.00
2022-11-04T18:25:30.468Z,11.00
2022-11-04T18:27:58.967Z,11.00
2022-11-04T18:30:27.627Z,11.00
2022-11-04T18:32:56.056Z,11.00
2022-11-04T18:35:24.687Z,11.00
2022-11-04T18:37:53.462Z,11.00
2022-11-04T18:40:23.264Z,11.00
2022-11-04T18:42:52.345Z,11.00
2022-11-04T18:45:21.046Z,11.00
2022-11-04T18:47:49.878Z,11.00
2022-11-04T18:50:18.540Z,11.00
2022-11-04T18:52:47.053Z,11.00
2022-11-04T18:55:15.610Z,11.00
2022-11-04T18:57:45.581Z,11.00
2022-11-04T19:00:17.292Z,11.00
2022-11-04T19:02:46.086Z,10.90
2022-11-04T19:05:14.732Z,11.00
2022-11-04T19:07:43.768Z,11.00
2022-11-04T19:10:13.340Z,11.00
2022-11-04T19:12:59.324Z,11.00
2022-11-04T19:15:30.239Z,11.00
2022-11-04T19:17:58.749Z,11.00
2022-11-04T19:20:28.164Z,10.90
2022-11-04T19:22:56.769Z,10.90
2022-11-04T19:25:25.269Z,11.00
2022-11-04T19:28:18.575Z,10.90
2022-11-04T19:30:43.608Z,10.90
2022-11-04T19:33:12.032Z,10.90
2022-11-04T19:35:41.523Z,10.90
2022-11-04T19:38:10.764Z,10.90
2022-11-04T19:40:40.874Z,10.90
2022-11-04T19:43:12.715Z,10.90
2022-11-04T19:45:48.317Z,10.90
2022-11-04T19:48:18.102Z,11.00
2022-11-04T19:50:49.125Z,11.00
2022-11-04T19:53:18.292Z,11.00
2022-11-04T19:55:51.040Z,11.00
2022-11-04T19:58:19.765Z,10.90
2022-11-04T20:00:49.924Z,10.90
2022-11-04T20:03:18.499Z,10.90
2022-11-04T20:05:47.263Z,10.90
2022-11-04T20:08:15.876Z,10.90
2022-11-04T20:10:44.826Z,10.90
2022-11-04T20:13:33.748Z,10.90
2022-11-04T20:16:04.707Z,10.90
2022-11-04T20:18:33.146Z,10.90
2022-11-04T20:21:04.361Z,10.90
2022-11-04T20:23:32.872Z,10.90
2022-11-04T20:26:08.148Z,10.90
2022-11-04T20:28:36.572Z,10.90
2022-11-04T20:31:12.062Z,10.90
2022-11-04T20:33:40.717Z,10.90
2022-11-04T20:36:09.602Z,10.90
2022-11-04T20:38:38.712Z,10.90
2022-11-04T20:41:08.900Z,10.90
2022-11-04T20:43:38.617Z,10.90
2022-11-04T20:46:10.129Z,10.90
2022-11-04T20:48:40.328Z,10.90
2022-11-04T20:51:10.268Z,10.90
2022-11-04T20:53:39.075Z,10.90
2022-11-04T20:56:10.488Z,10.90
2022-11-04T20:58:41.345Z,11.00
2022-11-04T21:01:12.299Z,11.00
2022-11-04T21:03:43.053Z,11.00
2022-11-04T21:06:12.090Z,11.10
2022-11-04T21:08:40.868Z,11.10
2022-11-04T21:11:09.518Z,11.10
2022-11-04T21:13:37.948Z,11.10
2022-11-04T21:16:06.966Z,11.20
2022-11-04T21:18:35.493Z,11.20
2022-11-04T21:21:07.339Z,11.20
2022-11-04T21:23:36.769Z,11.20
2022-11-04T21:26:08.881Z,11.30
2022-11-04T21:28:37.369Z,11.30
2022-11-04T21:31:07.805Z,11.20
2022-11-04T21:33:36.453Z,11.30
2022-11-04T21:36:08.333Z,11.30
2022-11-04T21:38:36.811Z,11.20
2022-11-04T21:41:06.805Z,11.20
2022-11-04T21:43:35.227Z,11.20
2022-11-04T21:46:04.998Z,11.10
2022-11-04T21:48:35.229Z,11.10
2022-11-04T21:51:06.765Z,11.10
2022-11-04T21:53:35.756Z,11.10
2022-11-04T21:56:06.605Z,11.10
2022-11-04T21:58:35.214Z,11.10
2022-11-04T22:01:04.540Z,11.10
2022-11-04T22:03:33.302Z,11.20
2022-11-04T22:06:03.305Z,11.20
2022-11-04T22:08:33.641Z,11.20
2022-11-04T22:11:08.309Z,11.20
2022-11-04T22:13:37.293Z,11.10
2022-11-04T22:16:12.293Z,11.10
2022-11-04T22:18:40.902Z,11.10
2022-11-04T22:21:13.108Z,11.00
2022-11-04T22:23:43.953Z,11.00
2022-11-04T22:26:14.764Z,11.00
2022-11-04T22:28:43.333Z,11.00
2022-11-04T22:31:13.909Z,10.90
2022-11-04T22:33:42.421Z,10.90
2022-11-04T22:36:12.391Z,10.80
2022-11-04T22:38:43.267Z,10.80
2022-11-04T22:41:14.210Z,10.80
2022-11-04T22:43:42.801Z,10.70
2022-11-04T22:46:14.393Z,10.70
2022-11-04T22:48:43.288Z,10.70
2022-11-04T22:51:12.622Z,10.70
2022-11-04T22:53:43.048Z,10.70
2022-11-04T22:56:13.785Z,10.60
2022-11-04T22:58:42.665Z,10.60
2022-11-04T23:01:13.076Z,10.50
2022-11-04T23:03:42.155Z,10.50
2022-11-04T23:06:11.475Z,10.50
2022-11-04T23:08:42.369Z,10.40
2022-11-04T23:11:35.404Z,10.40
2022-11-04T23:14:21.598Z,10.40
2022-11-04T23:17:09.307Z,10.40
2022-11-04T23:19:38.263Z,10.30
2022-11-04T23:22:24.316Z,10.30
2022-11-04T23:25:09.873Z,10.30
2022-11-04T23:27:59.700Z,10.20
2022-11-04T23:30:31.081Z,10.20
2022-11-04T23:33:00.834Z,10.10
2022-11-04T23:35:49.597Z,10.10
2022-11-04T23:38:18.197Z,10.10
2022-11-04T23:41:07.805Z,10.10
2022-11-04T23:43:36.786Z,10.10
2022-11-04T23:46:22.984Z,10.10
2022-11-04T23:49:23.250Z,10.10
2022-11-04T23:52:09.128Z,10.10
2022-11-04T23:54:54.843Z,10.10
2022-11-04T23:57:40.542Z,10.10
